Terminal Aerodrome Forecast
Issued by NWS Corpus Christi, TX

Home | Current Version | Previous Version | Text Only | Print | Product List | Glossary On
Versions: 1 2 3 4 5 6 7 8 9 10 11 12 13 14 15
000
FTUS44 KCRP 202100 AAA
TAFCRP
TAF AMD
KCRP 202119Z 2021/2118 08012KT P6SM VCTS SCT030CB BKN150
      TEMPO 2021/2023 VRB15G25KT 3SM TSRA BKN025CB
     FM210000 08006KT P6SM SCT025
     FM210900 04004KT P6SM FEW015
      TEMPO 2110/2113 P6SM BKN015
     FM211500 05009KT P6SM FEW025=

USA.gov is the U.S. government's official web portal to all federal, state and local government web resources and services.